createdAt,value
2022-12-08T00:01:21.325Z,8.27
2022-12-08T00:03:49.261Z,7.68
2022-12-08T00:06:48.157Z,7.63
2022-12-08T00:09:23.871Z,6.97
2022-12-08T00:11:59.645Z,6.57
2022-12-08T00:14:54.671Z,7.30
2022-12-08T00:17:21.779Z,7.03
2022-12-08T00:19:50.729Z,6.82
2022-12-08T00:22:17.946Z,6.88
2022-12-08T00:24:46.632Z,7.40
2022-12-08T00:27:15.577Z,7.60
2022-12-08T00:29:46.343Z,7.25
2022-12-08T00:32:13.730Z,7.63
2022-12-08T00:34:40.908Z,8.25
2022-12-08T00:37:08.036Z,7.93
2022-12-08T00:39:35.249Z,8.00
2022-12-08T00:42:14.265Z,7.05
2022-12-08T00:44:43.062Z,7.97
2022-12-08T00:47:11.067Z,8.20
2022-12-08T00:49:39.211Z,7.55
2022-12-08T00:52:06.751Z,7.60
2022-12-08T00:54:33.890Z,7.80
2022-12-08T00:57:01.021Z,8.40
2022-12-08T00:59:28.219Z,8.27
2022-12-08T01:01:55.345Z,9.25
2022-12-08T01:04:22.508Z,8.50
2022-12-08T01:06:49.900Z,8.70
2022-12-08T01:09:18.363Z,8.80
2022-12-08T01:11:46.352Z,7.53
2022-12-08T01:14:14.592Z,7.65
2022-12-08T01:16:42.397Z,7.45
2022-12-08T01:19:14.598Z,6.75
2022-12-08T01:21:42.877Z,6.60
2022-12-08T01:24:14.952Z,6.22
2022-12-08T01:26:42.387Z,6.80
2022-12-08T01:29:11.042Z,7.05
2022-12-08T01:31:38.865Z,7.57
2022-12-08T01:34:07.064Z,8.40
2022-12-08T01:36:37.287Z,7.53
2022-12-08T01:39:10.746Z,7.50
2022-12-08T01:41:39.919Z,7.03
2022-12-08T01:44:08.438Z,7.00
2022-12-08T01:46:43.422Z,7.15
2022-12-08T01:49:21.042Z,7.15
2022-12-08T04:36:16.199Z,15.07
2022-12-08T04:38:43.288Z,15.10
2022-12-08T04:41:10.484Z,15.35
2022-12-08T04:43:37.888Z,14.40
2022-12-08T04:46:09.391Z,13.48
2022-12-08T04:48:40.176Z,13.50
2022-12-08T04:51:07.608Z,15.32
2022-12-08T04:53:34.745Z,14.32
2022-12-08T04:56:01.855Z,14.18
2022-12-08T04:58:29.006Z,13.98
2022-12-08T05:00:56.244Z,14.80
2022-12-08T05:03:28.487Z,12.60
2022-12-08T05:05:56.472Z,12.45
2022-12-08T05:08:23.758Z,14.38
2022-12-08T05:10:50.885Z,13.50
2022-12-08T05:13:18.026Z,12.95
2022-12-08T05:15:45.173Z,13.05
2022-12-08T05:18:12.303Z,13.55
2022-12-08T05:20:39.419Z,12.82
2022-12-08T05:23:06.551Z,12.52
2022-12-08T05:25:33.634Z,11.98
2022-12-08T05:28:24.635Z,11.88
2022-12-08T05:30:48.054Z,13.63
2022-12-08T05:33:15.342Z,13.55
2022-12-08T05:35:43.176Z,13.52
2022-12-08T05:38:11.732Z,13.55
2022-12-08T05:40:40.218Z,12.70
2022-12-08T05:43:07.628Z,12.63
2022-12-08T05:45:34.889Z,12.27
2022-12-08T05:48:02.081Z,13.73
2022-12-08T05:50:29.224Z,14.70
2022-12-08T05:52:57.527Z,13.13
2022-12-08T05:55:24.665Z,13.45
2022-12-08T05:57:51.785Z,14.35
2022-12-08T06:00:19.727Z,15.45
2022-12-08T06:02:47.058Z,17.70
2022-12-08T06:05:14.349Z,15.43
2022-12-08T06:07:41.502Z,18.20
2022-12-08T06:10:09.197Z,16.40
2022-12-08T06:12:36.426Z,17.58
2022-12-08T06:15:04.408Z,17.83
2022-12-08T06:17:31.586Z,18.08
2022-12-08T06:19:58.864Z,19.02
2022-12-08T06:22:26.066Z,17.83
2022-12-08T06:24:53.137Z,16.77
2022-12-08T06:27:20.390Z,17.02
2022-12-08T06:29:47.439Z,16.45
2022-12-08T06:32:14.592Z,16.67
2022-12-08T06:34:41.713Z,17.70
2022-12-08T06:37:08.853Z,16.55
2022-12-08T06:39:36.163Z,16.50
2022-12-08T06:42:22.086Z,17.27
2022-12-08T06:44:49.328Z,18.10
2022-12-08T06:47:16.509Z,16.40
2022-12-08T06:49:43.689Z,15.88
2022-12-08T06:52:10.775Z,17.13
2022-12-08T06:54:37.892Z,18.77
2022-12-08T06:57:04.998Z,16.20
2022-12-08T06:59:32.138Z,17.42
2022-12-08T07:01:59.378Z,16.80
2022-12-08T07:04:26.542Z,16.88
2022-12-08T07:06:53.653Z,17.27
2022-12-08T07:09:20.858Z,17.25
2022-12-08T07:11:48.085Z,15.98
2022-12-08T07:14:15.149Z,15.50
2022-12-08T07:16:42.301Z,16.42
2022-12-08T07:19:09.697Z,14.88
2022-12-08T07:21:37.096Z,14.90
2022-12-08T07:24:04.652Z,15.23
2022-12-08T07:26:31.864Z,15.50
2022-12-08T07:29:00.659Z,15.88
2022-12-08T07:31:28.706Z,15.50
2022-12-08T07:33:57.195Z,14.60
2022-12-08T07:36:27.176Z,15.32
2022-12-08T07:38:54.617Z,17.10
2022-12-08T07:41:24.435Z,18.05
2022-12-08T07:43:52.331Z,16.80
2022-12-08T07:46:22.364Z,15.30
2022-12-08T07:48:49.926Z,14.60
2022-12-08T07:51:17.241Z,15.00
2022-12-08T07:53:51.572Z,12.93
2022-12-08T07:56:21.298Z,14.70
2022-12-08T07:58:48.496Z,16.20
2022-12-08T08:01:30.515Z,16.35
2022-12-08T08:04:07.030Z,16.17
2022-12-08T08:06:35.185Z,17.00
2022-12-08T08:09:02.253Z,16.05
2022-12-08T08:11:29.472Z,15.07
2022-12-08T08:13:58.510Z,17.35
2022-12-08T08:16:25.801Z,15.80
2022-12-08T08:18:53.186Z,15.32
2022-12-08T08:21:45.707Z,14.20
2022-12-08T08:24:08.738Z,13.25
2022-12-08T08:26:37.170Z,12.70
2022-12-08T08:29:04.459Z,13.48
2022-12-08T08:31:31.661Z,12.82
2022-12-08T08:34:00.756Z,11.43
2022-12-08T08:36:27.841Z,13.02
2022-12-08T08:38:54.948Z,12.48
2022-12-08T08:41:22.027Z,11.40
2022-12-08T08:43:49.454Z,11.75
2022-12-08T08:46:16.786Z,10.30
2022-12-08T08:48:43.938Z,10.13
2022-12-08T08:51:13.414Z,10.98
2022-12-08T08:53:41.453Z,10.88
2022-12-08T08:56:15.075Z,9.68
2022-12-08T08:58:44.026Z,10.00
2022-12-08T09:01:30.849Z,9.82
2022-12-08T09:03:59.053Z,8.98
2022-12-08T09:06:30.597Z,10.63
2022-12-08T09:08:57.825Z,9.93
2022-12-08T09:11:25.018Z,10.50
2022-12-08T09:13:53.590Z,9.25
2022-12-08T09:16:21.698Z,9.52
2022-12-08T09:18:49.720Z,10.18
2022-12-08T09:21:23.157Z,8.75
2022-12-08T09:23:55.122Z,9.30
2022-12-08T09:26:23.398Z,8.63
2022-12-08T09:28:51.716Z,8.85
2022-12-08T09:31:20.753Z,7.93
2022-12-08T09:33:48.485Z,8.30
2022-12-08T09:36:16.014Z,8.65
2022-12-08T09:38:43.062Z,8.80
2022-12-08T09:41:50.298Z,8.32
2022-12-08T09:44:32.426Z,8.75
2022-12-08T09:47:01.853Z,8.65
2022-12-08T09:49:49.941Z,8.45
2022-12-08T09:52:44.620Z,8.30
2022-12-08T09:55:24.601Z,8.47
2022-12-08T09:58:03.329Z,8.50
2022-12-08T10:00:30.736Z,8.38
2022-12-08T10:02:57.874Z,8.65
2022-12-08T10:05:27.927Z,8.50
2022-12-08T10:08:18.293Z,8.07
2022-12-08T10:10:57.499Z,8.30
2022-12-08T10:13:38.479Z,8.77
2022-12-08T10:16:41.349Z,8.70
2022-12-08T10:19:22.783Z,8.23
2022-12-08T10:21:50.576Z,8.82
2022-12-08T10:24:35.153Z,9.15
2022-12-08T10:27:05.680Z,8.32
2022-12-08T10:29:33.917Z,8.40
2022-12-08T10:32:01.846Z,9.02
2022-12-08T10:34:29.033Z,8.98
2022-12-08T10:36:57.676Z,8.85
2022-12-08T10:39:38.712Z,10.40
2022-12-08T10:42:22.123Z,10.30
2022-12-08T10:44:58.310Z,9.98
2022-12-08T10:47:28.735Z,9.90
2022-12-08T10:50:20.047Z,10.55
2022-12-08T10:52:55.833Z,10.00
2022-12-08T10:55:23.303Z,11.02
2022-12-08T10:57:50.605Z,10.13
2022-12-08T11:00:24.545Z,10.30
2022-12-08T11:02:54.764Z,10.38
2022-12-08T11:05:24.020Z,11.73
2022-12-08T11:07:54.285Z,11.65
2022-12-08T11:10:35.646Z,26.00
2022-12-08T11:13:06.589Z,11.75
2022-12-08T11:15:40.121Z,10.63
2022-12-08T11:18:28.739Z,9.40
2022-12-08T11:21:16.863Z,8.07
2022-12-08T11:23:48.806Z,8.00
2022-12-08T11:26:35.449Z,8.57
2022-12-08T11:29:02.856Z,9.02
2022-12-08T11:31:38.671Z,9.30
2022-12-08T11:34:10.044Z,9.68
2022-12-08T11:36:39.370Z,9.90
2022-12-08T11:39:06.498Z,9.68
2022-12-08T11:41:42.954Z,9.30
2022-12-08T11:44:24.598Z,10.20
2022-12-08T11:47:06.479Z,10.25
2022-12-08T11:49:42.078Z,10.20
2022-12-08T11:52:22.124Z,10.57
2022-12-08T11:55:11.763Z,11.35
2022-12-08T11:57:38.872Z,11.65
2022-12-08T12:00:07.067Z,11.52
2022-12-08T12:02:44.640Z,10.52
2022-12-08T12:08:33.878Z,10.75
2022-12-08T12:11:37.021Z,10.85
2022-12-08T12:14:21.198Z,12.15
2022-12-08T12:17:07.652Z,11.07
2022-12-08T12:19:39.640Z,11.30
2022-12-08T12:22:20.283Z,10.82
2022-12-08T12:24:51.935Z,11.07
2022-12-08T12:27:37.692Z,10.57
2022-12-08T12:30:08.739Z,12.23
2022-12-08T12:32:51.914Z,11.20
2022-12-08T12:35:34.746Z,10.13
2022-12-08T12:38:28.020Z,11.45
2022-12-08T12:41:03.146Z,12.05
2022-12-08T12:43:33.751Z,10.35
2022-12-08T12:46:25.621Z,10.95
2022-12-08T12:48:53.189Z,11.77
2022-12-08T12:51:45.774Z,10.55
2022-12-08T12:54:22.812Z,11.63
2022-12-08T12:56:52.160Z,11.85
2022-12-08T12:59:50.213Z,11.27
2022-12-08T13:02:36.492Z,11.18
2022-12-08T13:05:33.355Z,11.20
2022-12-08T13:08:02.702Z,10.23
2022-12-08T13:10:31.264Z,12.07
2022-12-08T13:13:18.483Z,11.30
2022-12-08T13:16:10.001Z,11.40
2022-12-08T13:18:57.329Z,11.73
2022-12-08T13:21:31.598Z,10.98
2022-12-08T13:24:17.830Z,12.00
2022-12-08T13:27:04.383Z,11.20
2022-12-08T13:29:32.572Z,10.85
2022-12-08T13:32:01.444Z,11.32
2022-12-08T13:34:42.069Z,10.95
2022-12-08T13:37:11.937Z,12.00
2022-12-08T13:40:14.416Z,10.88
2022-12-08T13:43:22.051Z,12.32
2022-12-08T13:57:36.850Z,11.57
2022-12-08T14:00:15.701Z,12.00
2022-12-08T14:02:49.053Z,11.93
2022-12-08T14:05:40.575Z,12.90
2022-12-08T14:11:36.671Z,12.20
2022-12-08T14:14:27.297Z,12.25
2022-12-08T14:17:06.367Z,12.77
2022-12-08T14:19:35.319Z,13.07
2022-12-08T14:22:14.052Z,12.70
2022-12-08T14:24:48.254Z,12.15
2022-12-08T14:27:27.121Z,11.73
2022-12-08T14:30:22.246Z,12.55
2022-12-08T14:35:34.488Z,11.75
2022-12-08T14:38:22.157Z,12.25
2022-12-08T14:41:04.633Z,12.45
2022-12-08T14:43:33.038Z,12.93
2022-12-08T14:46:06.693Z,12.52
2022-12-08T14:48:33.799Z,13.32
2022-12-08T14:51:03.992Z,14.55
2022-12-08T14:53:43.801Z,15.60
2022-12-08T14:56:26.034Z,16.25
2022-12-08T14:59:07.416Z,16.70
2022-12-08T15:01:35.585Z,15.65
2022-12-08T15:04:24.548Z,16.98
2022-12-08T15:06:54.444Z,18.08
2022-12-08T15:09:41.177Z,16.55
2022-12-08T15:12:26.674Z,18.90
2022-12-08T15:15:16.313Z,17.60
2022-12-08T15:17:58.499Z,17.42
2022-12-08T15:20:28.759Z,16.92
2022-12-08T15:22:58.924Z,15.30
2022-12-08T15:25:26.135Z,17.80
2022-12-08T15:27:53.425Z,19.25
2022-12-08T15:30:20.895Z,17.23
2022-12-08T15:32:48.133Z,17.40
2022-12-08T15:35:16.283Z,15.77
2022-12-08T15:37:43.435Z,16.05
2022-12-08T15:40:23.144Z,16.42
2022-12-08T15:42:50.331Z,17.80
2022-12-08T15:45:17.912Z,16.45
2022-12-08T15:47:45.771Z,16.80
2022-12-08T15:50:18.420Z,17.95
2022-12-08T15:52:45.615Z,18.88
2022-12-08T15:55:14.504Z,22.02
2022-12-08T15:58:44.524Z,21.85
2022-12-08T16:00:53.107Z,23.40
2022-12-08T16:07:12.338Z,18.35
2022-12-08T16:09:27.759Z,14.40
2022-12-08T16:12:14.721Z,14.35
2022-12-08T16:17:36.852Z,15.15
2022-12-08T16:20:06.644Z,13.45
2022-12-08T16:25:22.727Z,14.77
2022-12-08T16:28:36.960Z,14.50
2022-12-08T16:30:40.638Z,13.95
2022-12-08T16:33:07.992Z,13.32
2022-12-08T16:35:35.198Z,13.07
2022-12-08T16:38:02.377Z,13.02
2022-12-08T16:40:29.781Z,13.82
2022-12-08T16:42:57.343Z,14.07
2022-12-08T16:45:27.304Z,14.02
2022-12-08T16:47:56.903Z,13.70
2022-12-08T16:50:30.125Z,13.60
2022-12-08T16:53:05.929Z,13.20
2022-12-08T16:55:34.156Z,14.05
2022-12-08T16:58:01.470Z,13.65
2022-12-08T17:00:30.391Z,13.85
2022-12-08T17:02:58.761Z,14.98
2022-12-08T17:05:27.023Z,15.57
2022-12-08T17:07:54.775Z,17.67
2022-12-08T17:10:25.302Z,17.77
2022-12-08T17:12:52.823Z,18.25
2022-12-08T17:15:23.931Z,19.58
2022-12-08T17:17:51.502Z,19.83
2022-12-08T17:20:27.232Z,20.98
2022-12-08T17:22:55.791Z,21.48
2022-12-08T17:25:24.073Z,19.58
2022-12-08T17:27:51.398Z,20.70
2022-12-08T17:30:19.141Z,21.88
2022-12-08T17:32:46.335Z,22.75
2022-12-08T17:35:14.453Z,22.65
2022-12-08T17:37:43.566Z,24.45
2022-12-08T17:40:11.409Z,24.33
2022-12-08T17:42:38.871Z,24.25
2022-12-08T17:45:07.932Z,26.40
2022-12-08T17:47:35.846Z,25.98
2022-12-08T17:50:03.304Z,28.35
2022-12-08T17:52:30.647Z,26.88
2022-12-08T17:54:57.769Z,29.02
2022-12-08T17:57:24.951Z,30.42
2022-12-08T17:59:52.089Z,27.85
2022-12-08T18:02:19.480Z,26.65
2022-12-08T18:04:46.683Z,28.05
2022-12-08T18:07:13.928Z,27.20
2022-12-08T18:09:42.204Z,26.42
2022-12-08T18:12:09.595Z,26.77
2022-12-08T18:14:36.825Z,25.17
2022-12-08T18:17:04.041Z,24.58
2022-12-08T18:19:31.445Z,25.80
2022-12-08T18:21:58.624Z,25.25
2022-12-08T18:24:25.764Z,24.85
2022-12-08T18:26:53.353Z,23.48
2022-12-08T18:29:21.965Z,24.17
2022-12-08T18:31:50.376Z,25.17
2022-12-08T18:34:19.169Z,24.60
2022-12-08T18:36:47.253Z,25.02
2022-12-08T18:39:26.761Z,24.55
2022-12-08T18:41:54.812Z,27.05
2022-12-08T18:44:23.918Z,27.00
2022-12-08T18:47:02.493Z,27.52
2022-12-08T18:49:33.252Z,28.85
2022-12-08T18:52:00.344Z,31.70
2022-12-08T18:54:50.005Z,28.42
2022-12-08T18:57:15.934Z,29.58
2022-12-08T18:59:43.199Z,30.13
2022-12-08T19:02:14.137Z,29.55
2022-12-08T19:04:43.946Z,28.20
2022-12-08T19:07:12.436Z,28.55
2022-12-08T19:09:41.141Z,28.15
2022-12-08T19:12:08.451Z,28.70
2022-12-08T19:14:35.643Z,27.08
2022-12-08T19:17:02.821Z,26.33
2022-12-08T19:19:30.073Z,27.65
2022-12-08T19:21:57.537Z,28.70
2022-12-08T19:24:25.402Z,29.10
2022-12-08T19:26:53.037Z,29.10
2022-12-08T19:29:20.272Z,29.55
2022-12-08T19:31:47.502Z,29.13
2022-12-08T19:34:15.207Z,30.20
2022-12-08T19:36:43.154Z,29.30
2022-12-08T19:39:42.041Z,26.80
2022-12-08T19:42:35.443Z,23.63
2022-12-08T19:45:11.997Z,26.33
2022-12-08T19:47:40.356Z,25.27
2022-12-08T19:50:28.488Z,25.15
2022-12-08T19:52:56.355Z,24.85
2022-12-08T19:55:24.186Z,25.85
2022-12-08T19:57:52.137Z,29.38
2022-12-08T20:00:20.974Z,27.13
2022-12-08T20:02:48.524Z,27.70
2022-12-08T20:05:16.253Z,26.17
2022-12-08T20:07:43.585Z,27.00
2022-12-08T20:10:21.285Z,26.13
2022-12-08T20:12:48.509Z,25.65
2022-12-08T20:15:15.703Z,23.88
2022-12-08T20:17:43.404Z,23.95
2022-12-08T20:20:12.752Z,24.58
2022-12-08T20:22:40.118Z,25.77
2022-12-08T20:25:08.245Z,26.80
2022-12-08T20:27:39.698Z,27.55
2022-12-08T20:30:11.809Z,25.25
2022-12-08T20:32:42.306Z,23.85
2022-12-08T20:35:09.645Z,24.27
2022-12-08T20:37:36.935Z,23.83
2022-12-08T20:40:06.207Z,23.52
2022-12-08T20:42:33.411Z,23.42
2022-12-08T20:45:00.729Z,23.17
2022-12-08T20:47:28.880Z,23.85
2022-12-08T20:49:56.296Z,24.30
2022-12-08T20:52:25.909Z,26.77
2022-12-08T20:54:53.253Z,27.02
2022-12-08T20:57:20.472Z,27.42
2022-12-08T20:59:47.772Z,25.75
2022-12-08T21:02:14.991Z,25.70
2022-12-08T21:04:42.371Z,24.27
2022-12-08T21:07:09.572Z,23.88
2022-12-08T21:09:37.306Z,22.77
2022-12-08T21:12:04.700Z,22.08
2022-12-08T21:14:31.852Z,23.27
2022-12-08T21:16:59.013Z,23.15
2022-12-08T21:19:26.879Z,22.48
2022-12-08T21:21:54.131Z,22.30
2022-12-08T21:24:26.407Z,23.45
2022-12-08T21:26:56.238Z,22.48
2022-12-08T21:29:23.424Z,27.08
2022-12-08T21:31:51.494Z,27.10
2022-12-08T21:34:18.879Z,24.00
2022-12-08T21:36:46.342Z,23.17
2022-12-08T21:39:13.479Z,23.08
2022-12-08T21:41:59.215Z,22.38
2022-12-08T21:44:26.773Z,22.35
2022-12-08T21:46:54.014Z,22.42
2022-12-08T21:49:21.398Z,22.10
2022-12-08T21:51:48.761Z,21.55
2022-12-08T21:54:19.033Z,22.33
2022-12-08T21:56:49.403Z,21.98
2022-12-08T21:59:18.152Z,23.63
2022-12-08T22:01:45.492Z,22.13
2022-12-08T22:04:17.621Z,26.30
2022-12-08T22:06:45.240Z,24.75
2022-12-08T22:09:13.690Z,23.33
2022-12-08T22:11:41.737Z,23.30
2022-12-08T22:14:14.141Z,24.33
2022-12-08T22:16:43.122Z,24.63
2022-12-08T22:19:10.780Z,23.90
2022-12-08T22:21:38.508Z,25.27
2022-12-08T22:24:06.405Z,24.27
2022-12-08T22:26:34.513Z,24.73
2022-12-08T22:29:04.172Z,25.38
2022-12-08T22:31:31.585Z,25.27
2022-12-08T22:33:59.531Z,24.55
2022-12-08T22:36:28.367Z,26.30
2022-12-08T22:38:55.830Z,26.00
2022-12-08T22:41:23.339Z,24.48
2022-12-08T22:43:50.962Z,23.17
2022-12-08T22:46:26.576Z,22.45
2022-12-08T22:48:55.252Z,23.50
2022-12-08T22:51:23.888Z,21.90
2022-12-08T22:53:51.349Z,22.83
2022-12-08T22:56:19.372Z,22.65
2022-12-08T22:58:46.989Z,23.27
2022-12-08T23:01:33.259Z,28.38
2022-12-08T23:04:02.078Z,30.55
2022-12-08T23:06:30.997Z,32.58
2022-12-08T23:08:59.425Z,34.53
2022-12-08T23:11:30.667Z,29.33
2022-12-08T23:14:01.146Z,25.85
2022-12-08T23:16:28.918Z,26.88
2022-12-08T23:18:56.575Z,25.08
2022-12-08T23:21:23.943Z,24.58
2022-12-08T23:23:51.078Z,25.00
2022-12-08T23:26:21.979Z,25.23
2022-12-08T23:29:44.987Z,25.63
2022-12-08T23:32:31.483Z,25.98
2022-12-08T23:34:59.377Z,23.17
2022-12-08T23:37:27.886Z,24.20
2022-12-08T23:39:55.403Z,24.77
2022-12-08T23:42:23.109Z,24.58
2022-12-08T23:44:50.879Z,25.50
2022-12-08T23:47:18.564Z,30.52
2022-12-08T23:49:46.226Z,29.33
2022-12-08T23:52:14.371Z,28.17
2022-12-08T23:54:41.846Z,27.17
2022-12-08T23:57:09.114Z,27.13
2022-12-08T23:59:36.971Z,25.83
